createdAt,value
2019-02-22T00:01:40.856Z,17.82
2019-02-22T00:04:09.282Z,22.00
2019-02-22T00:06:37.584Z,22.87
2019-02-22T00:09:06.597Z,20.02
2019-02-22T00:11:35.103Z,18.57
2019-02-22T00:14:04.008Z,18.90
2019-02-22T00:16:32.548Z,21.42
2019-02-22T00:19:01.190Z,22.75
2019-02-22T00:21:33.625Z,26.23
2019-02-22T00:24:02.107Z,27.75
2019-02-22T00:26:30.589Z,25.65
2019-02-22T00:28:59.000Z,23.83
2019-02-22T00:31:27.461Z,23.85
2019-02-22T00:33:55.958Z,21.95
2019-02-22T00:36:24.631Z,19.20
2019-02-22T00:38:53.078Z,17.70
2019-02-22T00:41:21.482Z,15.80
2019-02-22T00:43:50.068Z,14.05
2019-02-22T00:46:18.341Z,13.60
2019-02-22T00:48:46.690Z,13.72
2019-02-22T00:51:15.125Z,16.77
2019-02-22T00:53:43.479Z,17.52
2019-02-22T00:56:11.866Z,15.32
2019-02-22T00:58:59.930Z,14.07
2019-02-22T01:01:28.337Z,11.85
2019-02-22T01:04:01.325Z,10.85
2019-02-22T01:06:29.860Z,10.45
2019-02-22T01:08:58.421Z,8.90
2019-02-22T01:11:26.862Z,10.28
2019-02-22T01:13:55.288Z,11.30
2019-02-22T01:16:23.668Z,10.53
2019-02-22T01:18:52.120Z,9.18
2019-02-22T01:21:20.544Z,9.20
2019-02-22T01:24:08.314Z,13.40
2019-02-22T01:26:36.849Z,19.23
2019-02-22T01:29:05.230Z,19.50
2019-02-22T01:31:33.671Z,17.05
2019-02-22T01:34:02.113Z,15.35
2019-02-22T01:36:30.606Z,14.87
2019-02-22T01:38:58.957Z,13.80
2019-02-22T01:41:27.342Z,15.83
2019-02-22T01:43:55.786Z,19.73
2019-02-22T01:46:24.153Z,20.62
2019-02-22T01:48:52.514Z,19.25
2019-02-22T01:51:21.078Z,17.82
2019-02-22T01:53:49.521Z,16.00
2019-02-22T01:56:17.889Z,14.87
2019-02-22T01:58:48.971Z,13.48
2019-02-22T02:01:16.425Z,12.35
2019-02-22T02:03:44.944Z,13.55
2019-02-22T02:06:13.387Z,14.85
2019-02-22T02:08:41.894Z,14.15
2019-02-22T02:11:10.268Z,12.80
2019-02-22T02:13:38.772Z,12.23
2019-02-22T02:16:07.125Z,11.43
2019-02-22T02:18:35.515Z,11.97
2019-02-22T02:21:03.961Z,11.38
2019-02-22T02:23:32.356Z,12.33
2019-02-22T02:26:00.896Z,11.80
2019-02-22T02:28:29.338Z,12.98
2019-02-22T02:30:57.761Z,11.68
2019-02-22T02:33:26.274Z,11.95
2019-02-22T02:36:14.219Z,11.85
2019-02-22T02:38:42.582Z,11.50
2019-02-22T02:41:11.684Z,12.90
2019-02-22T02:43:40.321Z,13.80
2019-02-22T02:46:08.873Z,15.58
2019-02-22T02:48:37.444Z,19.30
2019-02-22T02:51:05.942Z,17.87
2019-02-22T02:53:34.555Z,15.53
2019-02-22T02:56:03.029Z,16.17
2019-02-22T02:58:31.552Z,15.90
2019-02-22T03:01:00.030Z,13.85
2019-02-22T03:03:28.486Z,14.75
2019-02-22T03:06:04.465Z,13.95
2019-02-22T03:08:34.434Z,12.60
2019-02-22T03:11:02.869Z,12.58
2019-02-22T03:13:31.307Z,12.25
2019-02-22T03:15:59.748Z,15.48
2019-02-22T03:18:28.139Z,18.98
2019-02-22T03:20:56.608Z,20.00
2019-02-22T03:23:25.045Z,18.98
2019-02-22T03:25:53.425Z,18.37
2019-02-22T03:28:21.958Z,16.32
2019-02-22T03:30:50.692Z,15.70
2019-02-22T03:33:19.299Z,14.58
2019-02-22T03:35:47.749Z,15.25
2019-02-22T03:38:18.348Z,15.72
2019-02-22T03:40:46.681Z,18.80
2019-02-22T03:43:15.054Z,21.55
2019-02-22T03:45:43.622Z,24.47
2019-02-22T03:48:17.045Z,25.62
2019-02-22T03:50:45.496Z,24.00
2019-02-22T03:53:15.606Z,23.27
2019-02-22T03:55:43.999Z,19.12
2019-02-22T03:58:12.421Z,17.35
2019-02-22T04:00:43.811Z,15.38
2019-02-22T04:03:12.242Z,16.95
2019-02-22T04:05:40.688Z,17.70
2019-02-22T04:08:09.021Z,21.60
2019-02-22T04:10:37.562Z,24.50
2019-02-22T04:13:05.932Z,23.35
2019-02-22T04:15:34.455Z,19.57
2019-02-22T04:18:02.930Z,20.32
2019-02-22T04:20:31.322Z,19.70
2019-02-22T04:22:59.833Z,19.32
2019-02-22T04:25:28.138Z,16.42
2019-02-22T04:27:56.809Z,15.10
2019-02-22T04:30:25.234Z,14.47
2019-02-22T04:32:53.711Z,14.53
2019-02-22T04:35:22.099Z,16.70
2019-02-22T04:37:50.599Z,16.12
2019-02-22T04:40:19.033Z,15.53
2019-02-22T04:42:47.506Z,14.80
2019-02-22T04:45:15.937Z,13.08
2019-02-22T04:47:44.400Z,11.90
2019-02-22T04:50:12.882Z,11.33
2019-02-22T04:52:41.347Z,10.30
2019-02-22T04:55:09.832Z,9.18
2019-02-22T04:57:38.220Z,10.40
2019-02-22T05:00:07.249Z,12.30
2019-02-22T05:02:55.149Z,11.78
2019-02-22T05:05:24.602Z,11.90
2019-02-22T05:07:53.067Z,10.95
2019-02-22T05:10:24.081Z,9.73
2019-02-22T05:12:52.545Z,9.73
2019-02-22T05:15:21.017Z,11.30
2019-02-22T05:17:49.498Z,11.83
2019-02-22T05:20:18.981Z,12.73
2019-02-22T05:22:47.417Z,12.55
2019-02-22T05:25:15.882Z,11.25
2019-02-22T05:27:44.488Z,9.95
2019-02-22T05:30:12.972Z,9.98
2019-02-22T05:32:41.426Z,9.10
2019-02-22T05:35:09.931Z,8.88
2019-02-22T05:37:38.402Z,8.53
2019-02-22T05:40:07.035Z,7.92
2019-02-22T05:42:35.784Z,8.68
2019-02-22T05:45:05.069Z,8.23
2019-02-22T05:47:33.468Z,7.35
2019-02-22T05:50:02.043Z,7.25
2019-02-22T05:52:30.456Z,7.25
2019-02-22T05:54:58.999Z,7.37
2019-02-22T05:57:27.486Z,7.75
2019-02-22T05:59:55.961Z,8.18
2019-02-22T06:02:24.415Z,8.98
2019-02-22T06:04:52.934Z,8.88
2019-02-22T06:07:21.385Z,8.48
2019-02-22T06:09:49.899Z,7.97
2019-02-22T06:12:18.727Z,8.70
2019-02-22T06:14:47.270Z,8.65
2019-02-22T06:17:15.635Z,9.18
2019-02-22T06:19:44.264Z,9.80
2019-02-22T06:22:12.618Z,10.95
2019-02-22T06:24:41.077Z,10.85
2019-02-22T06:27:09.598Z,10.70
2019-02-22T06:29:38.085Z,9.95
2019-02-22T06:32:06.454Z,9.78
2019-02-22T06:34:34.942Z,9.45
2019-02-22T06:37:03.446Z,9.85
2019-02-22T06:39:31.914Z,9.68
2019-02-22T06:42:00.352Z,8.78
2019-02-22T06:44:28.743Z,9.43
2019-02-22T06:46:57.201Z,10.30
2019-02-22T06:49:25.902Z,10.03
2019-02-22T06:51:54.346Z,9.68
2019-02-22T06:54:22.835Z,8.98
2019-02-22T06:56:51.329Z,9.18
2019-02-22T06:59:19.659Z,9.78
2019-02-22T07:01:50.000Z,9.20
2019-02-22T07:04:37.634Z,9.90
2019-02-22T07:07:06.039Z,10.08
2019-02-22T07:09:34.498Z,10.72
2019-02-22T07:12:04.572Z,10.20
2019-02-22T07:14:33.036Z,10.23
2019-02-22T07:17:01.465Z,10.58
2019-02-22T07:19:30.023Z,9.30
2019-02-22T07:21:58.457Z,9.58
2019-02-22T07:24:26.817Z,9.58
2019-02-22T07:26:55.205Z,9.60
2019-02-22T07:29:23.574Z,8.28
2019-02-22T07:31:52.019Z,7.90
2019-02-22T07:34:20.555Z,7.10
2019-02-22T07:36:48.918Z,7.35
2019-02-22T07:39:27.288Z,6.30
2019-02-22T07:41:47.521Z,7.47
2019-02-22T07:44:15.957Z,7.17
2019-02-22T07:46:44.345Z,6.90
2019-02-22T07:49:32.268Z,6.50
2019-02-22T07:52:00.677Z,7.60
2019-02-22T07:54:29.096Z,8.38
2019-02-22T07:56:58.674Z,7.20
2019-02-22T07:59:27.052Z,7.67
2019-02-22T08:01:55.473Z,11.03
2019-02-22T08:04:23.903Z,10.15
2019-02-22T08:06:52.353Z,10.10
2019-02-22T08:09:20.808Z,9.38
2019-02-22T08:11:49.246Z,10.35
2019-02-22T08:14:17.865Z,11.45
2019-02-22T08:16:46.320Z,12.23
2019-02-22T08:19:14.745Z,13.32
2019-02-22T08:22:03.582Z,13.20
2019-02-22T08:24:32.148Z,14.58
2019-02-22T08:27:00.564Z,12.88
2019-02-22T08:29:29.085Z,13.78
2019-02-22T08:31:57.603Z,13.75
2019-02-22T08:34:32.106Z,13.68
2019-02-22T08:37:00.713Z,14.93
2019-02-22T08:39:29.133Z,13.90
2019-02-22T08:41:57.598Z,13.58
2019-02-22T08:44:26.043Z,13.05
2019-02-22T08:46:54.533Z,16.10
2019-02-22T08:49:23.022Z,15.78
2019-02-22T08:51:51.574Z,16.77
2019-02-22T08:54:20.077Z,16.23
2019-02-22T08:56:48.506Z,19.32
2019-02-22T08:59:17.009Z,17.32
2019-02-22T09:01:45.498Z,16.07
2019-02-22T09:04:13.925Z,13.53
2019-02-22T09:06:42.484Z,12.95
2019-02-22T09:09:11.090Z,12.15
2019-02-22T09:11:39.590Z,12.63
2019-02-22T09:14:08.079Z,10.88
2019-02-22T09:16:37.606Z,12.70
2019-02-22T09:19:06.080Z,11.95
2019-02-22T09:21:34.530Z,9.78
2019-02-22T09:24:03.034Z,11.48
2019-02-22T09:26:31.580Z,12.47
2019-02-22T09:29:00.074Z,12.23
2019-02-22T09:31:28.638Z,11.03
2019-02-22T09:33:56.936Z,9.90
2019-02-22T09:36:25.325Z,10.25
2019-02-22T09:38:53.802Z,9.28
2019-02-22T09:41:22.262Z,9.35
2019-02-22T09:43:55.329Z,8.35
2019-02-22T09:46:20.813Z,7.72
2019-02-22T09:48:49.379Z,7.35
2019-02-22T09:51:17.930Z,6.37
2019-02-22T09:53:46.450Z,7.67
2019-02-22T09:56:14.942Z,6.80
2019-02-22T09:58:43.395Z,8.00
2019-02-22T10:01:11.736Z,7.17
2019-02-22T10:03:41.290Z,7.95
2019-02-22T10:06:09.783Z,9.10
2019-02-22T10:08:38.237Z,9.03
2019-02-22T10:11:06.694Z,7.85
2019-02-22T10:13:35.260Z,7.22
2019-02-22T10:16:23.265Z,6.58
2019-02-22T10:18:51.657Z,6.83
2019-02-22T10:21:20.091Z,7.12
2019-02-22T10:23:49.553Z,6.28
2019-02-22T10:26:18.037Z,6.72
2019-02-22T10:29:05.973Z,6.75
2019-02-22T10:31:34.470Z,6.72
2019-02-22T10:34:02.881Z,7.00
2019-02-22T10:36:31.510Z,6.92
2019-02-22T10:39:19.448Z,8.90
2019-02-22T10:41:48.087Z,7.90
2019-02-22T10:44:18.133Z,8.15
2019-02-22T10:46:46.624Z,9.48
2019-02-22T10:49:15.110Z,8.68
2019-02-22T10:51:43.630Z,9.75
2019-02-22T10:54:12.044Z,7.97
2019-02-22T10:56:40.397Z,8.40
2019-02-22T10:59:08.928Z,7.85
2019-02-22T11:01:37.318Z,7.67
2019-02-22T11:04:05.772Z,9.80
2019-02-22T11:06:35.295Z,12.18
2019-02-22T11:09:04.793Z,13.43
2019-02-22T11:11:33.254Z,13.72
2019-02-22T11:14:01.769Z,13.28
2019-02-22T11:16:30.204Z,13.05
2019-02-22T11:18:58.864Z,12.63
2019-02-22T11:21:27.380Z,14.25
2019-02-22T11:23:55.817Z,14.80
2019-02-22T11:26:24.318Z,15.88
2019-02-22T11:28:52.837Z,15.03
2019-02-22T11:31:21.366Z,14.38
2019-02-22T11:33:49.809Z,17.27
2019-02-22T11:36:18.235Z,15.80
2019-02-22T11:38:46.634Z,14.30
2019-02-22T11:41:15.227Z,12.18
2019-02-22T11:43:43.660Z,12.05
2019-02-22T11:46:12.096Z,14.83
2019-02-22T11:49:00.034Z,16.87
2019-02-22T11:51:28.506Z,16.55
2019-02-22T11:53:56.942Z,18.30
2019-02-22T11:56:25.566Z,19.35
2019-02-22T11:58:53.943Z,24.32
2019-02-22T12:01:23.801Z,23.98
2019-02-22T12:03:52.389Z,22.70
2019-02-22T12:06:20.900Z,22.80
2019-02-22T12:08:49.351Z,20.60
2019-02-22T12:11:17.784Z,22.55
2019-02-22T12:13:46.161Z,21.30
2019-02-22T12:16:14.611Z,20.23
2019-02-22T12:18:43.158Z,18.35
2019-02-22T12:21:11.599Z,21.07
2019-02-22T12:23:40.097Z,18.25
2019-02-22T12:26:08.671Z,18.50
2019-02-22T12:28:37.169Z,17.92
2019-02-22T12:31:05.605Z,17.05
2019-02-22T12:33:34.214Z,18.32
2019-02-22T12:36:02.656Z,18.15
2019-02-22T12:38:31.106Z,15.45
2019-02-22T12:40:59.661Z,14.13
2019-02-22T12:43:28.089Z,14.60
2019-02-22T12:45:56.543Z,15.70
2019-02-22T12:48:25.090Z,15.88
2019-02-22T12:50:53.541Z,14.93
2019-02-22T12:53:21.935Z,16.62
2019-02-22T12:55:50.556Z,14.15
2019-02-22T12:58:19.021Z,13.32
2019-02-22T13:00:47.550Z,12.10
2019-02-22T13:03:16.066Z,10.45
2019-02-22T13:05:44.604Z,9.25
2019-02-22T13:08:12.977Z,8.45
2019-02-22T13:10:41.466Z,8.80
2019-02-22T13:13:09.844Z,7.97
2019-02-22T13:15:38.283Z,7.97
2019-02-22T13:18:06.842Z,7.83
2019-02-22T13:20:35.319Z,6.75
2019-02-22T13:23:03.657Z,7.00
2019-02-22T13:25:32.150Z,7.10
2019-02-22T13:28:00.533Z,7.10
2019-02-22T13:30:28.899Z,5.90
2019-02-22T13:32:57.397Z,5.78
2019-02-22T13:35:25.904Z,5.47
2019-02-22T13:37:54.939Z,5.78
2019-02-22T13:40:23.481Z,5.55
2019-02-22T13:42:51.874Z,6.12
2019-02-22T13:45:39.820Z,7.03
2019-02-22T13:48:08.242Z,7.05
2019-02-22T13:50:36.623Z,7.22
2019-02-22T13:53:05.115Z,7.47
2019-02-22T13:55:52.965Z,7.30
2019-02-22T13:58:21.457Z,8.23
2019-02-22T14:00:49.973Z,7.90
2019-02-22T14:03:18.397Z,7.92
2019-02-22T14:05:46.952Z,7.95
2019-02-22T14:08:15.421Z,7.90
2019-02-22T14:10:43.953Z,7.70
2019-02-22T14:13:12.380Z,7.47
2019-02-22T14:15:40.779Z,8.10
2019-02-22T14:18:28.721Z,7.65
2019-02-22T14:20:57.105Z,7.87
2019-02-22T14:23:25.610Z,8.13
2019-02-22T14:25:54.082Z,7.95
2019-02-22T14:28:22.490Z,8.93
2019-02-22T14:30:50.964Z,7.90
2019-02-22T14:33:19.457Z,6.05
2019-02-22T14:35:47.841Z,5.60
2019-02-22T14:38:16.250Z,5.45
2019-02-22T14:40:44.927Z,5.20
2019-02-22T14:43:16.579Z,4.60
2019-02-22T14:45:49.696Z,5.00
2019-02-22T14:48:13.517Z,4.92
2019-02-22T14:50:41.986Z,5.80
2019-02-22T14:53:19.034Z,7.70
2019-02-22T14:55:40.606Z,7.20
2019-02-22T14:58:09.133Z,5.78
2019-02-22T15:00:37.597Z,5.58
2019-02-22T15:03:06.138Z,5.20
2019-02-22T15:05:34.605Z,5.90
2019-02-22T15:08:03.007Z,5.00
2019-02-22T15:10:31.515Z,4.97
2019-02-22T15:13:19.334Z,4.33
2019-02-22T15:16:00.179Z,4.95
2019-02-22T15:18:22.526Z,4.72
2019-02-22T15:20:50.988Z,5.87
2019-02-22T15:23:19.437Z,5.70
2019-02-22T15:25:47.794Z,5.85
2019-02-22T15:28:16.236Z,5.10
2019-02-22T15:30:45.401Z,4.65
2019-02-22T15:33:14.017Z,4.28
2019-02-22T15:35:42.457Z,4.17
2019-02-22T15:38:11.248Z,4.10
2019-02-22T15:40:58.981Z,3.90
2019-02-22T15:43:27.459Z,3.70
2019-02-22T15:45:55.971Z,3.52
2019-02-22T15:48:24.412Z,3.20
2019-02-22T15:50:52.861Z,3.58
2019-02-22T15:53:21.386Z,2.87
2019-02-22T15:55:49.733Z,3.62
2019-02-22T15:58:18.232Z,3.70
2019-02-22T16:00:46.702Z,3.50
2019-02-22T16:03:15.128Z,4.20
2019-02-22T16:05:45.172Z,4.00
2019-02-22T16:08:13.740Z,4.67
2019-02-22T16:10:42.171Z,4.55
2019-02-22T16:13:10.634Z,4.37
2019-02-22T16:15:40.683Z,4.10
2019-02-22T16:18:09.279Z,4.47
2019-02-22T16:20:37.726Z,4.45
2019-02-22T16:23:06.177Z,4.30
2019-02-22T16:25:34.639Z,4.22
2019-02-22T16:28:03.092Z,4.17
2019-02-22T16:30:32.368Z,4.00
2019-02-22T16:33:01.020Z,4.10
2019-02-22T16:35:29.428Z,3.70
2019-02-22T16:37:58.153Z,3.77
2019-02-22T16:40:26.593Z,3.95
2019-02-22T16:42:54.918Z,4.28
2019-02-22T16:45:23.460Z,4.30
2019-02-22T16:47:52.062Z,3.60
2019-02-22T16:50:20.421Z,3.20
2019-02-22T16:52:48.818Z,3.87
2019-02-22T16:55:17.269Z,3.92
2019-02-22T16:57:45.767Z,3.98
2019-02-22T17:00:15.303Z,3.30
2019-02-22T17:02:43.716Z,3.33
2019-02-22T17:05:14.876Z,3.62
2019-02-22T17:07:43.254Z,3.40
2019-02-22T17:10:11.931Z,3.75
2019-02-22T17:12:40.429Z,3.40
2019-02-22T17:15:13.554Z,3.37
2019-02-22T17:17:42.020Z,3.55
2019-02-22T17:20:11.822Z,3.42
2019-02-22T17:22:40.296Z,3.75
2019-02-22T17:25:11.934Z,3.50
2019-02-22T17:27:40.275Z,3.25
2019-02-22T17:30:11.916Z,3.30
2019-02-22T17:32:40.427Z,3.50
2019-02-22T17:35:08.732Z,3.10
2019-02-22T17:37:37.207Z,2.80
2019-02-22T17:40:12.088Z,2.75
2019-02-22T17:42:40.512Z,2.20
2019-02-22T17:45:09.013Z,2.40
2019-02-22T17:47:37.516Z,2.50
2019-02-22T17:50:08.017Z,2.83
2019-02-22T17:52:36.451Z,2.98
2019-02-22T17:55:09.314Z,3.20
2019-02-22T17:57:37.945Z,3.55
2019-02-22T18:00:13.656Z,3.20
2019-02-22T18:02:42.115Z,3.40
2019-02-22T18:05:30.017Z,3.40
2019-02-22T18:07:58.489Z,3.05
2019-02-22T18:10:26.846Z,3.08
2019-02-22T18:12:55.310Z,2.72
2019-02-22T18:15:23.876Z,2.90
2019-02-22T18:17:52.380Z,3.02
2019-02-22T18:20:20.879Z,3.00
2019-02-22T18:22:49.379Z,2.35
2019-02-22T18:25:17.748Z,2.83
2019-02-22T18:27:46.105Z,3.35
2019-02-22T18:30:17.185Z,3.27
2019-02-22T18:32:45.554Z,2.83
2019-02-22T18:35:13.947Z,2.52
2019-02-22T18:37:42.412Z,2.77
2019-02-22T18:40:13.475Z,3.37
2019-02-22T18:42:41.994Z,3.62
2019-02-22T18:45:12.337Z,4.10
2019-02-22T18:47:40.815Z,6.12
2019-02-22T18:50:10.700Z,9.48
2019-02-22T18:52:39.238Z,9.48
2019-02-22T18:55:09.590Z,11.28
2019-02-22T18:57:38.012Z,12.58
2019-02-22T19:00:20.690Z,12.20
2019-02-22T19:02:49.357Z,14.65
2019-02-22T19:05:17.842Z,16.57
2019-02-22T19:07:46.444Z,19.37
2019-02-22T19:10:16.753Z,20.37
2019-02-22T19:12:45.264Z,19.92
2019-02-22T19:15:14.527Z,22.40
2019-02-22T19:17:42.957Z,22.87
2019-02-22T19:20:21.647Z,23.57
2019-02-22T19:22:50.165Z,27.20
2019-02-22T19:25:18.650Z,29.75
2019-02-22T19:27:47.090Z,28.85
2019-02-22T19:30:21.078Z,28.98
2019-02-22T19:32:49.521Z,29.15
2019-02-22T19:35:18.875Z,29.35
2019-02-22T19:37:47.505Z,32.48
2019-02-22T19:40:19.168Z,30.45
2019-02-22T19:42:47.528Z,30.45
2019-02-22T19:45:15.896Z,31.00
2019-02-22T19:47:44.306Z,32.75
2019-02-22T19:50:13.915Z,33.48
2019-02-22T19:52:42.580Z,33.02
2019-02-22T19:55:18.667Z,33.73
2019-02-22T19:57:47.114Z,32.95
2019-02-22T20:00:17.709Z,33.90
2019-02-22T20:02:46.160Z,30.55
2019-02-22T20:05:15.488Z,33.13
2019-02-22T20:07:44.335Z,33.75
2019-02-22T20:10:18.944Z,37.65
2019-02-22T20:12:47.508Z,32.45
2019-02-22T20:15:18.897Z,34.98
2019-02-22T20:17:53.800Z,32.65
2019-02-22T20:20:18.612Z,32.00
2019-02-22T20:22:47.122Z,33.05
2019-02-22T20:25:15.804Z,31.02
2019-02-22T20:27:44.408Z,30.12
2019-02-22T20:30:18.180Z,29.07
2019-02-22T20:32:47.346Z,30.00
2019-02-22T20:35:27.277Z,34.20
2019-02-22T20:37:56.317Z,34.25
2019-02-22T20:40:25.313Z,34.30
2019-02-22T20:42:54.126Z,32.45
2019-02-22T20:45:23.094Z,29.48
2019-02-22T20:47:52.057Z,25.52
2019-02-22T20:50:21.104Z,22.62
2019-02-22T20:52:49.948Z,21.25
2019-02-22T20:55:18.858Z,20.40
2019-02-22T20:57:48.098Z,21.33
2019-02-22T21:00:22.459Z,21.60
2019-02-22T21:02:51.357Z,22.93
2019-02-22T21:05:20.191Z,21.93
2019-02-22T21:07:49.137Z,18.92
2019-02-22T21:10:20.008Z,18.25
2019-02-22T21:12:49.017Z,16.82
2019-02-22T21:15:17.932Z,16.37
2019-02-22T21:17:46.504Z,16.60
2019-02-22T21:20:19.108Z,16.85
2019-02-22T21:22:47.551Z,16.62
2019-02-22T21:25:15.909Z,15.98
2019-02-22T21:27:44.376Z,18.87
2019-02-22T21:30:16.927Z,19.92
2019-02-22T21:32:45.409Z,19.20
2019-02-22T21:35:13.918Z,19.32
2019-02-22T21:37:43.341Z,16.77
2019-02-22T21:40:14.490Z,16.93
2019-02-22T21:42:43.129Z,18.70
2019-02-22T21:45:13.691Z,22.35
2019-02-22T21:47:53.736Z,25.00
2019-02-22T21:50:13.608Z,27.48
2019-02-22T21:52:42.011Z,29.12
2019-02-22T21:55:15.583Z,32.25
2019-02-22T21:57:44.088Z,31.25
2019-02-22T22:00:23.535Z,31.70
2019-02-22T22:02:52.011Z,28.38
2019-02-22T22:05:20.308Z,26.12
2019-02-22T22:07:48.700Z,22.52
2019-02-22T22:10:17.301Z,20.72
2019-02-22T22:12:45.665Z,19.55
2019-02-22T22:15:15.193Z,18.10
2019-02-22T22:17:43.705Z,17.65
2019-02-22T22:20:12.174Z,16.12
2019-02-22T22:22:40.648Z,14.55
2019-02-22T22:25:10.953Z,14.33
2019-02-22T22:27:39.382Z,13.00
2019-02-22T22:30:12.896Z,14.30
2019-02-22T22:32:41.431Z,13.40
2019-02-22T22:35:14.244Z,13.70
2019-02-22T22:37:42.694Z,12.88
2019-02-22T22:40:11.318Z,13.15
2019-02-22T22:42:39.796Z,13.10
2019-02-22T22:45:16.314Z,11.80
2019-02-22T22:50:14.658Z,11.43
2019-02-22T22:52:43.108Z,11.35
2019-02-22T22:55:11.670Z,10.43
2019-02-22T22:57:40.094Z,10.23
2019-02-22T23:00:25.376Z,13.15
2019-02-22T23:02:53.817Z,12.43
2019-02-22T23:05:22.222Z,11.73
2019-02-22T23:07:50.752Z,10.98
2019-02-22T23:10:19.182Z,10.58
2019-02-22T23:12:47.641Z,10.65
2019-02-22T23:15:16.165Z,9.48
2019-02-22T23:17:44.629Z,9.25
2019-02-22T23:20:13.057Z,8.53
2019-02-22T23:22:41.519Z,8.63
2019-02-22T23:25:09.985Z,9.75
2019-02-22T23:27:38.432Z,9.70
2019-02-22T23:30:08.276Z,13.22
2019-02-22T23:32:36.688Z,15.93
2019-02-22T23:35:06.046Z,16.35
2019-02-22T23:37:34.582Z,14.28
2019-02-22T23:40:03.037Z,14.68
2019-02-22T23:42:31.507Z,16.82
2019-02-22T23:45:00.050Z,16.62
2019-02-22T23:47:28.538Z,15.08
2019-02-22T23:49:57.027Z,15.93
2019-02-22T23:52:25.483Z,17.85
2019-02-22T23:54:53.840Z,17.02
2019-02-22T23:57:22.231Z,14.65
2019-02-22T23:59:50.764Z,13.10
